createdAt,value
2022-09-04T00:02:14.876Z,65.00
2022-09-04T00:04:45.851Z,64.20
2022-09-04T00:07:18.484Z,65.30
2022-09-04T00:10:09.707Z,64.20
2022-09-04T00:12:58.674Z,64.20
2022-09-04T00:15:36.836Z,64.20
2022-09-04T00:18:11.628Z,65.10
2022-09-04T00:20:50.471Z,64.20
2022-09-04T00:23:35.232Z,64.30
2022-09-04T00:26:13.450Z,63.40
2022-09-04T00:28:49.171Z,63.80
2022-09-04T00:31:19.169Z,63.40
2022-09-04T00:34:07.290Z,64.50
2022-09-04T00:36:38.603Z,64.30
2022-09-04T00:39:23.856Z,64.20
2022-09-04T00:42:21.099Z,64.10
2022-09-04T00:45:11.988Z,64.00
2022-09-04T00:48:42.927Z,63.90
2022-09-04T00:51:35.974Z,63.90
2022-09-04T00:54:27.534Z,63.90
2022-09-04T00:57:03.194Z,63.90
2022-09-04T00:59:55.322Z,63.90
2022-09-04T01:02:38.094Z,63.10
2022-09-04T01:05:30.863Z,63.80
2022-09-04T01:08:23.622Z,63.70
2022-09-04T01:11:28.309Z,63.70
2022-09-04T01:14:34.412Z,63.70
2022-09-04T01:17:30.078Z,63.80
2022-09-04T01:20:20.253Z,63.70
2022-09-04T01:22:52.922Z,63.90
2022-09-04T01:25:38.580Z,63.80
2022-09-04T01:28:33.923Z,63.80
2022-09-04T01:31:19.555Z,63.80
2022-09-04T01:34:08.929Z,63.90
2022-09-04T01:37:04.306Z,63.80
2022-09-04T01:39:35.642Z,63.60
2022-09-04T01:42:08.257Z,63.80
2022-09-04T01:44:36.902Z,63.10
2022-09-04T01:47:17.190Z,63.00
2022-09-04T01:50:09.378Z,63.90
2022-09-04T01:52:41.266Z,63.70
2022-09-04T01:55:33.426Z,63.70
2022-09-04T01:58:41.062Z,63.80
2022-09-04T02:01:40.114Z,63.80
2022-09-04T02:04:37.551Z,63.90
2022-09-04T02:07:28.697Z,63.80
2022-09-04T02:10:22.538Z,63.70
2022-09-04T02:13:20.163Z,63.70
2022-09-04T02:16:07.212Z,62.90
2022-09-04T02:18:44.315Z,62.90
2022-09-04T02:21:37.209Z,63.60
2022-09-04T02:24:13.173Z,63.60
2022-09-04T02:27:02.555Z,63.60
2022-09-04T02:29:39.136Z,65.50
2022-09-04T02:32:18.833Z,63.80
2022-09-04T02:35:03.467Z,63.70
2022-09-04T02:37:43.647Z,62.60
2022-09-04T02:40:38.619Z,63.30
2022-09-04T02:43:57.543Z,63.20
2022-09-04T02:46:44.419Z,63.20
2022-09-04T02:49:49.511Z,62.40
2022-09-04T02:52:42.079Z,63.10
2022-09-04T02:55:20.789Z,63.10
2022-09-04T02:58:15.354Z,63.10
2022-09-04T03:00:48.344Z,63.10
2022-09-04T03:03:26.953Z,62.10
2022-09-04T03:06:05.775Z,62.90
2022-09-04T03:08:34.412Z,62.70
2022-09-04T03:11:13.665Z,61.90
2022-09-04T03:13:48.003Z,63.50
2022-09-04T03:16:26.918Z,62.60
2022-09-04T03:19:27.369Z,61.70
2022-09-04T03:22:04.227Z,62.40
2022-09-04T03:24:39.995Z,62.30
2022-09-04T03:27:14.684Z,61.50
2022-09-04T03:29:58.082Z,61.50
2022-09-04T03:32:32.166Z,61.50
2022-09-04T03:35:23.963Z,61.40
2022-09-04T03:38:13.734Z,62.60
2022-09-04T03:40:48.377Z,61.90
2022-09-04T03:43:45.114Z,62.00
2022-09-04T03:46:36.756Z,61.90
2022-09-04T03:49:09.260Z,61.80
2022-09-04T03:52:08.774Z,61.80
2022-09-04T03:54:45.386Z,61.80
2022-09-04T03:57:51.873Z,61.10
2022-09-04T04:00:21.207Z,61.90
2022-09-04T04:03:10.928Z,61.30
2022-09-04T04:05:48.349Z,61.90
2022-09-04T04:08:34.375Z,62.00
2022-09-04T04:11:40.109Z,61.30
2022-09-04T04:14:31.278Z,61.40
2022-09-04T04:17:31.376Z,62.20
2022-09-04T04:20:17.361Z,62.20
2022-09-04T04:23:08.959Z,62.20
2022-09-04T04:26:03.443Z,61.50
2022-09-04T04:28:59.732Z,62.30
2022-09-04T04:32:08.439Z,62.30
2022-09-04T04:34:49.019Z,62.30
2022-09-04T04:37:53.379Z,62.50
2022-09-04T04:40:42.420Z,62.40
2022-09-04T04:43:31.238Z,62.40
2022-09-04T04:46:04.164Z,62.80
2022-09-04T04:49:05.920Z,62.50
2022-09-04T04:51:50.754Z,62.50
2022-09-04T04:54:38.203Z,61.80
2022-09-04T04:57:23.138Z,62.50
2022-09-04T05:00:07.083Z,62.50
2022-09-04T05:03:07.436Z,62.50
2022-09-04T05:05:55.996Z,62.50
2022-09-04T05:08:38.614Z,62.60
2022-09-04T05:11:40.916Z,62.60
2022-09-04T05:14:25.327Z,62.70
2022-09-04T05:17:17.309Z,62.70
2022-09-04T05:20:17.667Z,64.10
2022-09-04T05:22:58.971Z,62.70
2022-09-04T05:25:45.630Z,63.30
2022-09-04T05:28:24.784Z,62.80
2022-09-04T05:31:17.119Z,61.90
2022-09-04T05:34:10.018Z,62.70
2022-09-04T05:37:21.054Z,62.70
2022-09-04T05:40:14.892Z,62.70
2022-09-04T05:43:02.474Z,61.90
2022-09-04T05:45:50.609Z,62.70
2022-09-04T05:48:50.573Z,62.70
2022-09-04T05:51:29.434Z,62.70
2022-09-04T05:54:24.407Z,62.60
2022-09-04T05:57:02.415Z,61.90
2022-09-04T05:59:44.021Z,61.90
2022-09-04T06:02:26.485Z,61.90
2022-09-04T06:05:11.732Z,61.90
2022-09-04T06:08:09.020Z,61.90
2022-09-04T06:10:42.979Z,61.80
2022-09-04T06:13:19.893Z,62.70
2022-09-04T06:16:09.242Z,61.80
2022-09-04T06:19:01.183Z,62.60
2022-09-04T06:21:55.870Z,62.50
2022-09-04T06:24:37.738Z,62.10
2022-09-04T06:27:34.506Z,62.90
2022-09-04T06:30:13.644Z,62.90
2022-09-04T06:33:34.218Z,64.20
2022-09-04T06:36:27.280Z,64.80
2022-09-04T06:39:03.445Z,65.90
2022-09-04T06:41:46.268Z,65.90
2022-09-04T06:44:39.591Z,65.90
2022-09-04T06:47:25.890Z,65.90
2022-09-04T06:50:19.322Z,66.70
2022-09-04T06:53:06.684Z,66.80
2022-09-04T06:55:45.640Z,67.50
2022-09-04T06:58:47.956Z,65.90
2022-09-04T07:01:26.218Z,66.50
2022-09-04T07:03:56.175Z,65.60
2022-09-04T07:06:32.427Z,66.40
2022-09-04T07:09:21.226Z,65.60
2022-09-04T07:12:13.750Z,65.50
2022-09-04T07:15:16.235Z,66.20
2022-09-04T07:17:55.648Z,65.20
2022-09-04T07:20:46.276Z,65.10
2022-09-04T07:23:27.527Z,65.50
2022-09-04T07:26:20.780Z,66.10
2022-09-04T07:29:02.978Z,65.10
2022-09-04T07:31:44.505Z,65.10
2022-09-04T07:34:38.570Z,64.50
2022-09-04T07:37:27.741Z,63.30
2022-09-04T07:40:11.298Z,64.90
2022-09-04T07:42:51.038Z,63.40
2022-09-04T07:45:30.218Z,64.20
2022-09-04T07:48:03.039Z,64.40
2022-09-04T07:50:35.446Z,64.50
2022-09-04T07:53:30.567Z,64.90
2022-09-04T07:56:29.358Z,64.90
2022-09-04T07:59:27.468Z,65.00
2022-09-04T08:02:23.483Z,64.90
2022-09-04T08:05:27.139Z,65.00
2022-09-04T08:08:01.947Z,64.80
2022-09-04T08:10:47.038Z,64.60
2022-09-04T08:13:41.778Z,64.60
2022-09-04T08:16:19.243Z,64.40
2022-09-04T08:18:53.077Z,63.60
2022-09-04T08:21:36.542Z,63.40
2022-09-04T08:24:34.615Z,63.40
2022-09-04T08:27:44.470Z,63.30
2022-09-04T08:30:14.697Z,63.10
2022-09-04T08:33:18.714Z,63.10
2022-09-04T08:36:03.124Z,63.00
2022-09-04T08:38:32.675Z,63.60
2022-09-04T08:41:06.895Z,63.40
2022-09-04T08:43:51.604Z,63.50
2022-09-04T08:46:49.388Z,63.20
2022-09-04T08:50:01.731Z,63.10
2022-09-04T08:52:52.538Z,62.40
2022-09-04T08:55:23.107Z,63.00
2022-09-04T08:58:05.530Z,63.10
2022-09-04T09:00:42.366Z,62.80
2022-09-04T09:03:39.381Z,61.90
2022-09-04T09:06:12.311Z,62.70
2022-09-04T09:08:47.640Z,62.70
2022-09-04T09:11:43.562Z,61.90
2022-09-04T09:14:33.434Z,61.80
2022-09-04T09:17:38.404Z,62.60
2022-09-04T09:20:24.365Z,62.60
2022-09-04T09:23:17.379Z,62.50
2022-09-04T09:26:06.193Z,61.80
2022-09-04T09:29:18.354Z,62.70
2022-09-04T09:32:12.529Z,62.50
2022-09-04T09:34:54.761Z,62.40
2022-09-04T09:37:50.890Z,62.40
2022-09-04T09:41:00.477Z,62.30
2022-09-04T09:43:30.121Z,62.80
2022-09-04T09:46:45.258Z,61.20
2022-09-04T09:49:30.866Z,62.50
2022-09-04T09:52:16.488Z,62.50
2022-09-04T09:55:21.174Z,62.70
2022-09-04T09:58:35.077Z,62.50
2022-09-04T10:01:17.868Z,61.60
2022-09-04T10:04:11.821Z,61.70
2022-09-04T10:06:59.198Z,62.40
2022-09-04T10:09:26.010Z,59.60
2022-09-04T10:12:30.879Z,61.60
2022-09-04T10:15:22.442Z,62.40
2022-09-04T10:18:26.898Z,62.40
2022-09-04T10:21:37.272Z,61.80
2022-09-04T10:24:40.950Z,62.40
2022-09-04T10:27:30.887Z,62.40
2022-09-04T10:30:16.737Z,62.30
2022-09-04T10:33:09.180Z,61.60
2022-09-04T10:36:03.700Z,62.40
2022-09-04T10:39:01.303Z,62.40
2022-09-04T10:42:17.247Z,61.60
2022-09-04T10:44:59.499Z,62.40
2022-09-04T10:47:44.954Z,62.40
2022-09-04T10:50:30.911Z,62.30
2022-09-04T10:53:21.081Z,62.20
2022-09-04T10:56:17.518Z,61.50
2022-09-04T10:59:03.410Z,61.50
2022-09-04T11:04:45.618Z,61.50
2022-09-04T11:07:33.605Z,62.40
2022-09-04T11:10:30.010Z,62.10
2022-09-04T11:13:31.864Z,62.10
2022-09-04T11:16:27.701Z,62.10
2022-09-04T11:19:28.764Z,62.10
2022-09-04T11:22:46.511Z,62.00
2022-09-04T11:25:18.943Z,61.20
2022-09-04T11:28:20.348Z,61.90
2022-09-04T11:31:16.033Z,61.80
2022-09-04T11:34:04.531Z,61.90
2022-09-04T11:37:01.115Z,61.80
2022-09-04T11:39:42.460Z,61.70
2022-09-04T11:42:20.351Z,61.70
2022-09-04T11:45:00.443Z,61.80
2022-09-04T11:47:45.683Z,61.80
2022-09-04T11:50:40.252Z,61.50
2022-09-04T11:53:25.528Z,60.90
2022-09-04T11:56:24.089Z,61.70
2022-09-04T11:59:06.847Z,62.30
2022-09-04T12:02:02.804Z,61.30
2022-09-04T12:04:50.064Z,61.30
2022-09-04T12:07:43.519Z,61.30
2022-09-04T12:10:38.211Z,61.20
2022-09-04T12:13:40.069Z,60.40
2022-09-04T12:16:09.979Z,60.90
2022-09-04T12:18:54.787Z,61.20
2022-09-04T12:21:47.339Z,60.80
2022-09-04T12:25:04.951Z,60.70
2022-09-04T12:27:53.657Z,60.70
2022-09-04T12:30:32.763Z,60.60
2022-09-04T12:33:21.046Z,59.90
2022-09-04T12:36:00.639Z,60.60
2022-09-04T12:38:52.538Z,60.40
2022-09-04T12:41:28.351Z,59.70
2022-09-04T12:44:21.682Z,60.40
2022-09-04T12:47:00.915Z,60.30
2022-09-04T12:49:49.305Z,60.40
2022-09-04T12:52:40.206Z,60.10
2022-09-04T12:55:36.334Z,60.00
2022-09-04T12:58:21.182Z,60.00
2022-09-04T13:00:56.006Z,59.90
2022-09-04T13:03:38.140Z,59.10
2022-09-04T13:06:11.171Z,59.10
2022-09-04T13:08:57.122Z,59.70
2022-09-04T13:11:33.075Z,59.60
2022-09-04T13:14:18.563Z,59.80
2022-09-04T13:17:23.279Z,59.40
2022-09-04T13:20:15.071Z,59.20
2022-09-04T13:23:05.371Z,58.60
2022-09-04T13:25:53.154Z,59.30
2022-09-04T13:28:58.041Z,59.00
2022-09-04T13:31:50.068Z,58.90
2022-09-04T13:34:48.377Z,58.90
2022-09-04T13:37:32.228Z,58.70
2022-09-04T13:40:17.386Z,58.70
2022-09-04T13:43:21.791Z,58.60
2022-09-04T13:45:57.247Z,58.50
2022-09-04T13:48:52.096Z,58.30
2022-09-04T13:51:24.041Z,58.20
2022-09-04T13:54:53.643Z,58.10
2022-09-04T13:57:27.822Z,57.30
2022-09-04T14:00:07.278Z,57.90
2022-09-04T14:02:36.740Z,57.70
2022-09-04T14:05:13.188Z,59.40
2022-09-04T14:07:45.345Z,57.50
2022-09-04T14:10:18.305Z,56.80
2022-09-04T14:13:02.779Z,56.70
2022-09-04T14:15:42.986Z,56.50
2022-09-04T14:18:35.123Z,56.50
2022-09-04T14:21:30.286Z,57.10
2022-09-04T14:24:08.792Z,56.30
2022-09-04T14:27:09.312Z,56.30
2022-09-04T14:30:07.246Z,56.80
2022-09-04T14:32:39.630Z,56.70
2022-09-04T14:35:21.296Z,56.90
2022-09-04T14:38:13.519Z,56.70
2022-09-04T14:41:02.304Z,56.70
2022-09-04T14:43:35.031Z,56.50
2022-09-04T14:46:28.367Z,56.50
2022-09-04T14:49:23.146Z,56.40
2022-09-04T14:51:56.632Z,55.80
2022-09-04T14:54:30.534Z,56.40
2022-09-04T14:57:03.323Z,56.30
2022-09-04T14:59:43.516Z,56.80
2022-09-04T15:02:10.435Z,56.30
2022-09-04T15:04:58.412Z,55.50
2022-09-04T15:07:43.643Z,56.20
2022-09-04T15:10:36.119Z,56.40
2022-09-04T15:13:24.781Z,56.20
2022-09-04T15:16:12.111Z,56.10
2022-09-04T15:18:55.274Z,54.70
2022-09-04T15:21:38.534Z,56.10
2022-09-04T15:24:17.666Z,56.10
2022-09-04T15:26:55.700Z,56.20
2022-09-04T15:29:51.698Z,56.00
2022-09-04T15:32:42.572Z,56.00
2022-09-04T15:35:19.880Z,56.00
2022-09-04T15:38:04.971Z,55.90
2022-09-04T15:40:33.722Z,56.00
2022-09-04T15:43:08.276Z,56.00
2022-09-04T15:45:53.503Z,55.20
2022-09-04T15:48:23.477Z,55.90
2022-09-04T15:51:26.724Z,55.90
2022-09-04T15:54:11.928Z,55.60
2022-09-04T15:56:57.147Z,56.00
2022-09-04T15:59:29.775Z,55.70
2022-09-04T16:02:21.641Z,55.80
2022-09-04T16:05:14.897Z,55.60
2022-09-04T16:08:20.972Z,55.50
2022-09-04T16:11:11.587Z,55.50
2022-09-04T16:13:53.023Z,55.40
2022-09-04T16:19:07.089Z,54.60
2022-09-04T16:21:55.021Z,55.20
2022-09-04T16:24:32.513Z,55.20
2022-09-04T16:26:59.738Z,55.20
2022-09-04T16:29:29.419Z,54.50
2022-09-04T16:31:58.307Z,55.10
2022-09-04T16:34:53.903Z,55.10
2022-09-04T16:37:51.361Z,55.10
2022-09-04T16:40:27.438Z,55.10
2022-09-04T16:43:16.298Z,55.20
2022-09-04T16:48:34.588Z,54.10
2022-09-04T16:51:42.052Z,54.70
2022-09-04T16:54:41.250Z,54.40
2022-09-04T16:57:17.089Z,53.70
2022-09-04T16:59:48.461Z,54.40
2022-09-04T17:02:36.031Z,54.40
2022-09-04T17:05:35.629Z,54.30
2022-09-04T17:08:08.175Z,54.80
2022-09-04T17:10:42.819Z,54.30
2022-09-04T17:13:27.663Z,54.40
2022-09-04T17:16:14.235Z,54.40
2022-09-04T17:18:48.490Z,53.70
2022-09-04T17:28:44.685Z,53.70
2022-09-04T17:29:04.369Z,53.60
2022-09-04T17:29:13.396Z,54.10
2022-09-04T17:31:13.431Z,53.30
2022-09-04T17:40:25.046Z,54.10
2022-09-04T17:40:48.980Z,54.00
2022-09-04T17:40:49.123Z,53.80
2022-09-04T17:43:23.408Z,54.40
2022-09-04T17:46:27.541Z,55.00
2022-09-04T17:48:56.368Z,53.80
2022-09-04T17:51:27.659Z,54.00
2022-09-04T17:53:59.143Z,53.90
2022-09-04T17:56:48.635Z,53.90
2022-09-04T17:59:34.120Z,53.60
2022-09-04T18:02:40.981Z,53.80
2022-09-04T18:05:20.520Z,53.40
2022-09-04T18:08:13.438Z,53.60
2022-09-04T18:10:52.364Z,53.50
2022-09-04T18:13:38.194Z,53.60
2022-09-04T18:16:14.476Z,53.60
2022-09-04T18:18:51.664Z,53.50
2022-09-04T18:21:24.226Z,53.40
2022-09-04T18:24:14.046Z,53.50
2022-09-04T18:27:15.044Z,53.50
2022-09-04T18:36:39.357Z,53.60
2022-09-04T18:37:18.215Z,53.40
2022-09-04T18:37:21.337Z,53.50
2022-09-04T18:39:12.340Z,53.30
2022-09-04T18:49:12.094Z,53.10
2022-09-04T18:50:34.160Z,53.40
2022-09-04T18:50:48.581Z,53.10
2022-09-04T18:51:14.638Z,53.10
2022-09-04T18:53:56.579Z,53.10
2022-09-04T18:56:34.325Z,53.10
2022-09-04T18:59:22.026Z,53.10
2022-09-04T19:02:25.656Z,53.10
2022-09-04T19:05:03.187Z,53.00
2022-09-04T19:07:41.104Z,53.20
2022-09-04T19:10:16.408Z,53.20
2022-09-04T19:12:47.645Z,53.20
2022-09-04T19:15:52.407Z,53.40
2022-09-04T19:18:45.798Z,53.40
2022-09-04T19:21:37.812Z,53.30
2022-09-04T19:24:25.150Z,53.30
2022-09-04T19:27:01.459Z,53.40
2022-09-04T19:29:49.227Z,53.40
2022-09-04T19:32:32.219Z,53.50
2022-09-04T19:35:20.542Z,53.50
2022-09-04T19:43:05.493Z,53.60
2022-09-04T19:45:54.953Z,53.60
2022-09-04T19:46:13.769Z,53.70
2022-09-04T19:46:50.796Z,53.60
2022-09-04T19:51:55.486Z,53.70
2022-09-04T19:53:30.441Z,53.70
2022-09-04T19:55:47.800Z,53.30
2022-09-04T19:58:20.294Z,53.30
2022-09-04T20:00:54.387Z,54.10
2022-09-04T20:03:46.263Z,56.10
2022-09-04T20:06:31.657Z,54.00
2022-09-04T20:09:07.355Z,54.60
2022-09-04T20:11:39.793Z,53.40
2022-09-04T20:14:31.843Z,53.20
2022-09-04T20:17:27.324Z,52.90
2022-09-04T20:20:03.496Z,52.60
2022-09-04T20:22:30.994Z,52.50
2022-09-04T20:25:27.395Z,51.20
2022-09-04T20:28:21.303Z,51.10
2022-09-04T20:31:33.307Z,50.50
2022-09-04T20:34:25.045Z,48.80
2022-09-04T20:37:22.527Z,49.10
2022-09-04T20:40:01.339Z,48.50
2022-09-04T20:42:35.612Z,48.90
2022-09-04T20:46:52.699Z,48.90
2022-09-04T20:52:45.541Z,48.80
2022-09-04T20:52:52.409Z,48.60
2022-09-04T20:54:32.362Z,48.50
2022-09-04T21:03:07.862Z,47.60
2022-09-04T21:03:20.359Z,48.10
2022-09-04T21:03:34.263Z,47.30
2022-09-04T21:06:25.311Z,47.90
2022-09-04T21:09:18.475Z,47.70
2022-09-04T21:11:50.179Z,47.00
2022-09-04T21:14:45.511Z,46.90
2022-09-04T21:17:34.559Z,46.80
2022-09-04T21:20:11.762Z,46.70
2022-09-04T21:22:53.677Z,47.60
2022-09-04T21:25:45.401Z,46.60
2022-09-04T21:28:21.023Z,46.50
2022-09-04T21:31:02.932Z,47.00
2022-09-04T21:34:01.207Z,47.00
2022-09-04T21:36:40.032Z,46.80
2022-09-04T21:39:28.413Z,46.10
2022-09-04T21:42:16.901Z,46.70
2022-09-04T21:45:25.260Z,46.60
2022-09-04T21:48:05.192Z,46.60
2022-09-04T21:50:57.380Z,46.60
2022-09-04T21:53:47.031Z,46.60
2022-09-04T22:02:25.052Z,46.40
2022-09-04T22:02:40.983Z,46.50
2022-09-04T22:02:59.307Z,47.00
2022-09-04T22:05:47.642Z,48.70
2022-09-04T22:13:28.627Z,48.50
2022-09-04T22:13:37.744Z,48.70
2022-09-04T22:14:53.831Z,48.80
2022-09-04T22:17:48.477Z,48.90
2022-09-04T22:20:24.232Z,49.60
2022-09-04T22:23:10.974Z,49.20
2022-09-04T22:26:23.956Z,49.80
2022-09-04T22:29:40.117Z,49.30
2022-09-04T22:32:55.694Z,49.20
2022-09-04T22:35:36.099Z,49.90
2022-09-04T22:38:37.368Z,49.80
2022-09-04T22:41:34.675Z,49.30
2022-09-04T22:44:18.328Z,49.90
2022-09-04T22:47:20.378Z,49.00
2022-09-04T22:50:25.341Z,49.30
2022-09-04T22:53:43.110Z,48.70
2022-09-04T22:56:24.578Z,48.40
2022-09-04T22:59:25.844Z,49.00
2022-09-04T23:02:18.002Z,50.30
2022-09-04T23:04:47.608Z,50.30
2022-09-04T23:13:53.024Z,49.90
2022-09-04T23:13:57.623Z,50.00
2022-09-04T23:13:58.887Z,50.60
2022-09-04T23:16:28.319Z,50.70
2022-09-04T23:24:13.471Z,50.90
2022-09-04T23:26:33.100Z,50.40
2022-09-04T23:26:52.825Z,51.00
2022-09-04T23:28:53.727Z,50.40
2022-09-04T23:31:43.198Z,51.50
2022-09-04T23:34:18.530Z,51.80
2022-09-04T23:37:00.781Z,50.60
2022-09-04T23:42:47.171Z,50.70
2022-09-04T23:45:34.215Z,51.30
2022-09-04T23:48:40.000Z,50.80
2022-09-04T23:51:34.742Z,50.80
2022-09-04T23:54:18.261Z,50.80
2022-09-04T23:57:08.018Z,51.40
